Time;durP1;ratioP1;P1;durP2;ratioP2;P2;SDS_P1;SDS_P2;PMS_P1;PMS_P2;Temp;Humidity;BMP_temperature;BMP_pressure;BME280_temperature;BME280_humidity;BME280_pressure;Samples;Min_cycle;Max_cycle;Signal;HPM_P1;HPM_P2
2023/04/18 00:01:13;;;;;;;36.28;19.67;;;7.90;99.90;;;;;;5043220;28;20448;-81
2023/04/18 00:03:39;;;;;;;34.05;18.27;;;7.90;99.90;;;;;;5035765;28;20029;-81
2023/04/18 00:06:05;;;;;;;34.95;19.77;;;7.80;99.90;;;;;;5059433;28;20029;-81
2023/04/18 00:08:32;;;;;;;39.85;20.05;;;7.90;99.90;;;;;;5032079;28;20036;-82
2023/04/18 00:10:57;;;;;;;36.17;18.23;;;7.90;99.90;;;;;;5060132;28;20431;-80
2023/04/18 00:13:23;;;;;;;32.55;18.05;;;7.90;99.90;;;;;;5046473;28;20033;-81
2023/04/18 00:15:52;;;;;;;33.47;18.60;;;8.00;99.90;;;;;;5048409;28;20044;-81
2023/04/18 00:18:18;;;;;;;35.42;19.55;;;8.00;99.90;;;;;;5048646;28;20036;-81
2023/04/18 00:20:45;;;;;;;38.95;20.77;;;8.10;99.90;;;;;;5047526;28;20041;-81
2023/04/18 00:23:12;;;;;;;37.17;20.67;;;8.10;99.90;;;;;;5045924;28;20090;-82
2023/04/18 00:25:39;;;;;;;34.88;19.13;;;8.10;99.90;;;;;;5047985;28;20025;-81
2023/04/18 00:28:04;;;;;;;39.40;20.88;;;8.10;99.90;;;;;;5059702;28;20430;-82
2023/04/18 00:30:30;;;;;;;36.13;19.52;;;8.20;99.90;;;;;;5047812;28;20041;-81
2023/04/18 00:32:56;;;;;;;37.35;19.08;;;8.20;99.90;;;;;;5029066;28;20041;-81
2023/04/18 00:35:21;;;;;;;39.47;20.25;;;8.20;99.90;;;;;;5038802;28;20062;-82
2023/04/18 00:37:47;;;;;;;35.55;19.33;;;8.30;99.90;;;;;;5047616;28;20094;-82
2023/04/18 00:40:13;;;;;;;38.78;20.73;;;8.30;99.90;;;;;;5046155;28;20033;-81
2023/04/18 00:42:38;;;;;;;37.28;18.85;;;8.20;99.90;;;;;;5078903;28;20051;-82
2023/04/18 00:45:04;;;;;;;38.85;19.48;;;8.20;99.90;;;;;;5065706;28;20040;-81
2023/04/18 00:47:30;;;;;;;33.70;19.08;;;8.20;99.90;;;;;;5026807;28;20103;-82
2023/04/18 00:49:56;;;;;;;36.40;19.15;;;8.20;99.90;;;;;;5031058;28;20057;-80
2023/04/18 00:52:23;;;;;;;35.20;18.45;;;8.20;99.90;;;;;;5063349;28;20107;-81
2023/04/18 00:54:49;;;;;;;35.45;18.27;;;8.20;99.90;;;;;;5056550;28;20650;-81
2023/04/18 00:57:15;;;;;;;34.50;18.70;;;8.10;99.90;;;;;;5054078;28;20092;-81
2023/04/18 00:59:41;;;;;;;33.15;17.77;;;8.10;99.90;;;;;;5062745;28;20078;-81
2023/04/18 01:02:06;;;;;;;35.25;18.30;;;8.10;99.90;;;;;;5047750;28;20029;-81
2023/04/18 01:04:32;;;;;;;30.95;16.95;;;8.10;99.90;;;;;;5032583;28;20120;-81
2023/04/18 01:06:58;;;;;;;32.83;18.33;;;8.10;99.90;;;;;;5044935;28;20116;-81
2023/04/18 01:09:24;;;;;;;36.70;19.13;;;8.00;99.90;;;;;;5045391;28;20136;-82
2023/04/18 01:11:50;;;;;;;36.28;18.05;;;8.00;99.90;;;;;;5055842;28;20115;-81
2023/04/18 01:14:18;;;;;;;38.70;18.10;;;7.90;99.90;;;;;;5047522;28;20420;-82
2023/04/18 01:16:46;;;;;;;34.88;18.80;;;7.80;99.90;;;;;;5073806;28;20105;-81
2023/04/18 01:19:18;;;;;;;35.85;18.13;;;7.70;99.90;;;;;;5063412;28;20115;-80
2023/04/18 01:21:44;;;;;;;30.63;17.83;;;7.60;99.90;;;;;;5052614;28;20040;-82
2023/04/18 01:24:14;;;;;;;32.50;17.70;;;7.60;99.90;;;;;;5066869;28;20050;-82
2023/04/18 01:26:42;;;;;;;35.25;18.27;;;7.60;99.90;;;;;;5055405;28;20028;-81
2023/04/18 01:29:08;;;;;;;36.92;18.17;;;7.50;99.90;;;;;;5046004;28;20162;-81
2023/04/18 01:31:38;;;;;;;35.97;18.13;;;7.50;99.90;;;;;;5040972;28;20131;-81
2023/04/18 01:34:04;;;;;;;36.15;17.70;;;7.40;99.90;;;;;;5044595;28;20032;-82
2023/04/18 01:36:30;;;;;;;32.78;16.52;;;7.30;99.90;;;;;;5055050;28;20029;-81
2023/04/18 01:38:57;;;;;;;31.95;16.58;;;7.30;99.90;;;;;;5066319;28;20032;-81
2023/04/18 01:41:22;;;;;;;32.17;17.40;;;7.40;99.90;;;;;;5081063;28;20369;-81
2023/04/18 01:43:48;;;;;;;36.25;17.42;;;7.40;99.90;;;;;;5049823;28;20100;-81
2023/04/18 01:46:14;;;;;;;32.55;16.73;;;7.40;99.90;;;;;;5045907;28;20545;-81
2023/04/18 01:48:39;;;;;;;34.35;16.50;;;7.30;99.90;;;;;;5044413;28;20108;-82
2023/04/18 01:51:05;;;;;;;37.15;17.08;;;7.30;99.90;;;;;;5057227;28;20072;-82
2023/04/18 01:53:31;;;;;;;33.95;17.73;;;7.30;99.90;;;;;;5064773;28;20029;-81
2023/04/18 01:55:57;;;;;;;31.38;16.42;;;7.30;99.90;;;;;;5061972;28;20222;-82
2023/04/18 01:58:24;;;;;;;28.63;16.73;;;7.30;99.90;;;;;;5044168;28;20029;-81
2023/04/18 02:00:53;;;;;;;34.50;17.15;;;7.30;99.90;;;;;;5048509;28;20036;-82
2023/04/18 02:03:19;;;;;;;35.10;17.05;;;7.30;99.90;;;;;;5052696;28;20032;-81
2023/04/18 02:05:45;;;;;;;35.63;17.77;;;7.20;99.90;;;;;;5041991;28;20099;-81
2023/04/18 02:08:12;;;;;;;33.25;17.00;;;7.10;99.90;;;;;;5043447;28;20530;-81
2023/04/18 02:10:37;;;;;;;37.28;18.05;;;7.10;99.90;;;;;;5063683;28;20040;-81
2023/04/18 02:13:03;;;;;;;32.90;16.65;;;7.10;99.90;;;;;;5080723;28;20254;-81
2023/04/18 02:15:29;;;;;;;32.78;16.70;;;7.10;99.90;;;;;;5059311;28;20036;-82
2023/04/18 02:17:54;;;;;;;34.72;17.55;;;7.10;99.90;;;;;;5052611;28;20043;-80
2023/04/18 02:20:20;;;;;;;28.95;16.80;;;7.10;99.90;;;;;;5063613;28;20098;-81
2023/04/18 02:22:46;;;;;;;32.53;17.00;;;7.10;99.90;;;;;;5056969;28;20044;-82
2023/04/18 02:25:12;;;;;;;34.20;17.63;;;7.10;99.90;;;;;;5025844;28;20029;-81
2023/04/18 02:27:38;;;;;;;31.90;16.52;;;7.10;99.90;;;;;;5048401;28;20511;-81
2023/04/18 02:30:04;;;;;;;34.80;16.67;;;7.20;99.90;;;;;;5053428;28;20044;-81
2023/04/18 02:32:30;;;;;;;31.90;16.67;;;7.10;99.90;;;;;;5025794;28;20029;-82
2023/04/18 02:34:56;;;;;;;32.10;17.40;;;7.10;99.90;;;;;;5063819;28;20048;-81
2023/04/18 02:37:21;;;;;;;36.47;17.17;;;7.10;99.90;;;;;;5061137;28;20044;-80
2023/04/18 02:39:47;;;;;;;28.73;15.38;;;7.00;99.90;;;;;;5044416;28;20027;-82
2023/04/18 02:42:12;;;;;;;31.38;16.65;;;7.00;99.90;;;;;;5045699;28;20112;-82
2023/04/18 02:44:38;;;;;;;33.67;17.08;;;7.10;99.90;;;;;;5056660;28;20361;-80
2023/04/18 02:47:04;;;;;;;33.03;16.73;;;7.10;99.90;;;;;;5080832;28;20058;-81
2023/04/18 02:49:29;;;;;;;32.95;16.70;;;7.10;99.90;;;;;;5059494;28;20021;-81
2023/04/18 02:51:56;;;;;;;31.65;15.88;;;7.20;99.90;;;;;;5044318;28;20040;-81
2023/04/18 02:54:23;;;;;;;33.13;18.00;;;7.20;99.90;;;;;;5055630;28;20034;-82
2023/04/18 02:56:50;;;;;;;29.23;16.77;;;7.40;99.90;;;;;;5054615;28;20064;-81
2023/04/18 02:59:16;;;;;;;34.47;17.02;;;7.50;99.90;;;;;;5060462;28;20142;-81
2023/04/18 03:01:41;;;;;;;35.25;19.15;;;7.50;99.90;;;;;;5052092;28;20094;-81
2023/04/18 03:04:07;;;;;;;30.48;16.65;;;7.60;99.90;;;;;;5043724;28;20108;-80
2023/04/18 03:06:33;;;;;;;34.42;18.42;;;7.70;99.90;;;;;;5050340;28;20033;-81
2023/04/18 03:08:58;;;;;;;35.60;17.85;;;7.80;99.90;;;;;;5057171;28;20877;-82
2023/04/18 03:11:24;;;;;;;33.33;18.05;;;7.90;99.90;;;;;;5050093;28;20125;-82
2023/04/18 03:13:49;;;;;;;33.50;17.92;;;8.00;99.90;;;;;;5047077;28;20032;-82
2023/04/18 03:16:15;;;;;;;32.70;17.25;;;8.10;99.90;;;;;;5049209;28;20028;-82
2023/04/18 03:18:41;;;;;;;30.77;16.98;;;8.10;99.90;;;;;;5046874;28;20104;-81
2023/04/18 03:21:06;;;;;;;28.02;16.92;;;8.20;99.90;;;;;;5063236;28;20025;-82
2023/04/18 03:23:32;;;;;;;32.45;16.90;;;8.30;99.90;;;;;;5048205;28;20033;-82
2023/04/18 03:25:58;;;;;;;34.45;17.45;;;8.20;99.90;;;;;;5059901;28;20115;-80
2023/04/18 03:28:23;;;;;;;35.65;17.85;;;8.30;99.90;;;;;;5050264;28;20040;-82
2023/04/18 03:30:49;;;;;;;32.58;17.70;;;8.30;99.90;;;;;;5068997;28;20192;-81
2023/04/18 03:33:16;;;;;;;30.90;17.23;;;8.30;99.90;;;;;;5050469;28;20040;-81
2023/04/18 03:35:41;;;;;;;33.97;18.30;;;8.30;99.90;;;;;;5059516;28;20028;-82
2023/04/18 03:38:07;;;;;;;31.55;17.10;;;8.20;99.90;;;;;;5070929;28;20024;-82
2023/04/18 03:40:33;;;;;;;31.88;17.45;;;8.10;99.90;;;;;;5070084;28;20517;-81
2023/04/18 03:43:01;;;;;;;28.88;17.05;;;8.00;99.90;;;;;;5053645;28;20781;-81
2023/04/18 03:45:27;;;;;;;34.70;17.77;;;7.90;99.90;;;;;;5066167;28;20033;-81
2023/04/18 03:47:52;;;;;;;31.45;16.50;;;7.80;99.90;;;;;;5040853;28;20043;-82
2023/04/18 03:50:18;;;;;;;32.92;17.80;;;7.80;99.90;;;;;;5051403;28;20069;-81
2023/04/18 03:52:43;;;;;;;31.08;16.85;;;7.70;99.90;;;;;;5063502;28;20044;-81
2023/04/18 03:55:10;;;;;;;31.50;16.75;;;7.60;99.90;;;;;;5029440;28;20567;-81
2023/04/18 03:57:35;;;;;;;31.58;16.45;;;7.50;99.90;;;;;;5029514;28;20484;-82
2023/04/18 04:00:03;;;;;;;31.20;16.20;;;7.40;99.90;;;;;;5033534;28;20038;-81
2023/04/18 04:02:29;;;;;;;36.30;17.40;;;7.40;99.90;;;;;;5050485;28;20899;-81
2023/04/18 04:04:54;;;;;;;32.58;17.02;;;7.40;99.90;;;;;;5052003;28;20040;-82
2023/04/18 04:07:20;;;;;;;31.83;16.92;;;7.30;99.90;;;;;;5049925;28;20043;-81
2023/04/18 04:09:45;;;;;;;31.20;16.50;;;7.30;99.90;;;;;;5049268;28;20043;-82
2023/04/18 04:12:11;;;;;;;31.48;16.63;;;7.20;99.90;;;;;;5037189;28;20044;-79
2023/04/18 04:14:37;;;;;;;28.63;15.52;;;7.10;99.90;;;;;;5030889;28;20025;-82
2023/04/18 04:17:02;;;;;;;27.30;16.17;;;7.10;99.90;;;;;;5048904;28;20044;-81
2023/04/18 04:19:28;;;;;;;28.27;16.30;;;7.00;99.90;;;;;;5050163;28;20391;-82
2023/04/18 04:21:53;;;;;;;32.08;16.58;;;7.00;99.90;;;;;;5048046;28;20051;-82
2023/04/18 04:24:21;;;;;;;29.02;16.88;;;6.90;99.90;;;;;;5049343;28;20494;-81
2023/04/18 04:26:49;;;;;;;31.17;17.40;;;6.90;99.90;;;;;;5062121;28;20074;-82
2023/04/18 04:29:15;;;;;;;29.15;16.48;;;6.90;99.90;;;;;;5050153;28;20036;-82
2023/04/18 04:31:41;;;;;;;32.03;17.85;;;6.80;99.90;;;;;;5047748;28;20037;-81
2023/04/18 04:34:07;;;;;;;28.85;16.10;;;6.80;99.90;;;;;;5028269;28;20026;-81
2023/04/18 04:36:33;;;;;;;33.03;16.92;;;6.80;99.90;;;;;;5047603;28;20115;-81
2023/04/18 04:39:02;;;;;;;32.28;17.95;;;6.70;99.90;;;;;;5039573;28;20096;-81
2023/04/18 04:41:28;;;;;;;39.35;17.58;;;6.70;99.90;;;;;;5048070;28;20078;-81
2023/04/18 04:43:53;;;;;;;35.30;19.10;;;6.70;99.90;;;;;;5047359;28;20045;-81
2023/04/18 04:46:19;;;;;;;40.05;18.80;;;6.80;99.90;;;;;;5036256;28;20036;-81
2023/04/18 04:48:45;;;;;;;34.45;18.77;;;6.80;99.90;;;;;;5062398;28;20127;-81
2023/04/18 04:51:11;;;;;;;33.75;18.67;;;6.90;99.90;;;;;;5048802;28;20091;-81
2023/04/18 04:53:36;;;;;;;39.42;18.70;;;6.90;99.90;;;;;;5061318;28;20025;-81
2023/04/18 04:56:03;;;;;;;38.25;19.23;;;6.80;99.90;;;;;;5046670;28;20029;-81
2023/04/18 04:58:29;;;;;;;35.03;19.15;;;6.80;99.90;;;;;;5058083;28;20024;-81
2023/04/18 05:00:55;;;;;;;36.80;19.80;;;6.90;99.90;;;;;;5057962;28;20139;-81
2023/04/18 05:03:21;;;;;;;32.30;18.60;;;7.00;99.90;;;;;;5068950;28;20443;-81
2023/04/18 05:05:47;;;;;;;35.42;18.52;;;6.90;99.90;;;;;;5075356;28;20048;-81
2023/04/18 05:08:12;;;;;;;32.55;17.50;;;6.90;99.90;;;;;;5060371;28;20140;-82
2023/04/18 05:10:38;;;;;;;37.92;19.27;;;6.90;99.90;;;;;;5077157;28;20064;-81
2023/04/18 05:13:04;;;;;;;32.58;18.52;;;7.00;99.90;;;;;;5050396;28;20033;-80
2023/04/18 05:15:30;;;;;;;37.47;18.63;;;7.00;99.90;;;;;;5050086;28;20025;-82
2023/04/18 05:17:56;;;;;;;31.30;18.40;;;7.00;99.90;;;;;;5060191;28;20063;-81
2023/04/18 05:20:23;;;;;;;31.13;17.35;;;7.00;99.90;;;;;;5073317;28;20439;-82
2023/04/18 05:22:48;;;;;;;32.08;17.25;;;7.10;99.90;;;;;;5062041;28;20382;-81
2023/04/18 05:25:14;;;;;;;31.85;17.40;;;7.20;99.90;;;;;;5052664;28;20099;-81
2023/04/18 05:27:41;;;;;;;32.95;18.33;;;7.20;99.90;;;;;;5049698;28;20859;-81
2023/04/18 05:30:07;;;;;;;38.13;18.08;;;7.30;99.90;;;;;;5059055;28;20079;-81
2023/04/18 05:32:33;;;;;;;31.55;17.23;;;7.40;99.90;;;;;;5067312;28;20118;-81
2023/04/18 05:34:58;;;;;;;30.60;16.52;;;7.50;99.90;;;;;;5065269;28;20029;-81
2023/04/18 05:37:24;;;;;;;30.33;17.15;;;7.50;99.90;;;;;;5061408;28;20139;-81
2023/04/18 05:39:50;;;;;;;30.13;17.00;;;7.60;99.90;;;;;;5067123;28;20029;-84
2023/04/18 05:42:15;;;;;;;29.85;16.75;;;7.60;99.90;;;;;;5067340;28;20024;-82
2023/04/18 05:44:41;;;;;;;29.63;16.13;;;7.60;99.90;;;;;;5050739;28;20613;-82
2023/04/18 05:47:06;;;;;;;27.55;16.70;;;7.70;99.90;;;;;;5049072;28;20034;-82
2023/04/18 05:49:32;;;;;;;28.88;15.98;;;7.80;99.90;;;;;;5050666;28;20078;-81
2023/04/18 05:51:58;;;;;;;28.38;15.52;;;7.90;99.90;;;;;;5062972;28;20036;-81
2023/04/18 05:54:24;;;;;;;29.23;16.08;;;7.90;99.90;;;;;;5066129;28;20040;-82
2023/04/18 05:56:50;;;;;;;27.45;16.02;;;8.00;99.90;;;;;;5057235;28;20048;-81
2023/04/18 05:59:16;;;;;;;28.75;16.15;;;8.00;99.90;;;;;;5045936;28;20876;-81
2023/04/18 06:01:41;;;;;;;27.38;15.52;;;8.10;99.90;;;;;;5054284;28;20033;-82
2023/04/18 06:04:07;;;;;;;31.40;15.50;;;8.10;99.90;;;;;;5052458;28;20820;-81
2023/04/18 06:06:33;;;;;;;41.25;20.63;;;8.20;99.90;;;;;;5065485;28;20052;-81
2023/04/18 06:08:59;;;;;;;32.40;15.32;;;8.20;99.90;;;;;;5059112;28;20072;-81
2023/04/18 06:11:25;;;;;;;26.73;14.73;;;8.40;99.90;;;;;;5056126;28;20104;-82
2023/04/18 06:13:50;;;;;;;26.73;15.30;;;8.50;99.90;;;;;;5051829;28;20060;-81
2023/04/18 06:16:16;;;;;;;31.17;15.20;;;8.60;99.90;;;;;;5042782;28;20763;-82
2023/04/18 06:18:41;;;;;;;26.38;15.45;;;8.60;99.90;;;;;;5044239;28;20041;-81
2023/04/18 06:21:07;;;;;;;27.55;15.55;;;8.80;99.90;;;;;;5041970;28;20036;-82
2023/04/18 06:23:32;;;;;;;27.13;14.82;;;9.00;99.90;;;;;;5043482;28;20029;-81
2023/04/18 06:25:58;;;;;;;37.35;21.17;;;9.20;99.90;;;;;;5040670;28;20349;-82
2023/04/18 06:28:25;;;;;;;28.33;14.70;;;9.10;99.90;;;;;;5038492;28;20033;-82
2023/04/18 06:30:50;;;;;;;25.88;15.35;;;9.20;99.90;;;;;;5039787;28;20032;-84
2023/04/18 06:33:16;;;;;;;35.42;19.23;;;9.40;99.90;;;;;;5041501;28;20055;-83
2023/04/18 06:35:41;;;;;;;29.17;16.13;;;9.20;99.90;;;;;;5045821;28;20526;-81
2023/04/18 06:38:07;;;;;;;30.17;16.55;;;9.10;99.90;;;;;;5032208;28;20025;-82
2023/04/18 06:40:33;;;;;;;44.72;22.65;;;9.00;99.90;;;;;;5042757;28;20028;-83
2023/04/18 06:42:59;;;;;;;30.73;17.67;;;8.80;99.90;;;;;;5051348;28;20107;-82
2023/04/18 06:45:24;;;;;;;31.40;17.55;;;8.80;99.90;;;;;;5059904;28;20491;-82
2023/04/18 06:47:51;;;;;;;33.78;17.50;;;8.80;99.90;;;;;;5053372;28;20029;-81
2023/04/18 06:50:16;;;;;;;38.22;20.08;;;8.60;99.90;;;;;;5040856;28;20053;-81
2023/04/18 06:52:45;;;;;;;35.08;18.77;;;8.60;99.90;;;;;;5067196;28;20385;-82
2023/04/18 06:55:12;;;;;;;33.80;18.25;;;8.60;99.90;;;;;;5048025;28;20025;-81
2023/04/18 06:57:40;;;;;;;32.28;17.80;;;8.60;99.90;;;;;;5055116;28;20075;-81
2023/04/18 07:00:06;;;;;;;35.03;17.95;;;8.60;99.90;;;;;;5048515;28;20039;-82
2023/04/18 07:02:33;;;;;;;34.13;19.27;;;8.70;99.90;;;;;;5044521;28;20120;-82
2023/04/18 07:04:59;;;;;;;32.15;18.10;;;8.80;99.90;;;;;;5043639;28;20025;-81
2023/04/18 07:07:25;;;;;;;32.88;18.65;;;8.80;99.90;;;;;;5047026;28;20107;-81
2023/04/18 07:09:51;;;;;;;35.92;18.73;;;8.50;99.90;;;;;;5041316;28;20037;-82
2023/04/18 07:12:17;;;;;;;35.00;18.92;;;8.60;99.90;;;;;;5032318;28;20032;-81
2023/04/18 07:14:42;;;;;;;31.80;17.65;;;8.70;99.90;;;;;;5045173;28;20022;-82
2023/04/18 07:17:08;;;;;;;167.77;80.45;;;8.80;99.90;;;;;;5046581;28;20083;-82
2023/04/18 07:19:34;;;;;;;36.10;19.70;;;8.60;99.90;;;;;;5043830;28;20464;-82
2023/04/18 07:22:00;;;;;;;32.50;18.55;;;8.60;99.90;;;;;;5041730;28;20410;-80
2023/04/18 07:24:25;;;;;;;34.95;18.42;;;8.60;99.90;;;;;;5059174;28;20136;-81
2023/04/18 07:26:51;;;;;;;38.08;18.98;;;8.60;99.90;;;;;;5048232;28;20035;-80
2023/04/18 07:29:20;;;;;;;36.90;18.15;;;8.70;99.90;;;;;;5046294;28;20086;-81
2023/04/18 07:31:46;;;;;;;39.38;20.00;;;8.70;99.90;;;;;;5041983;28;20373;-82
2023/04/18 07:34:12;;;;;;;34.75;17.95;;;8.90;99.90;;;;;;5040230;28;20035;-81
2023/04/18 07:36:38;;;;;;;39.35;18.63;;;8.80;99.90;;;;;;5054978;28;20120;-82
2023/04/18 07:39:04;;;;;;;35.05;19.08;;;9.00;99.90;;;;;;5038871;28;20128;-82
2023/04/18 07:41:30;;;;;;;30.20;17.02;;;9.10;99.90;;;;;;5037671;28;20044;-81
2023/04/18 07:43:55;;;;;;;30.95;18.35;;;9.40;99.90;;;;;;5042523;28;20033;-82
2023/04/18 07:46:21;;;;;;;37.67;18.92;;;9.60;99.90;;;;;;5041383;28;20399;-82
2023/04/18 07:48:47;;;;;;;33.25;18.65;;;10.00;99.90;;;;;;5043934;28;20110;-81
2023/04/18 07:51:12;;;;;;;35.47;18.40;;;10.40;99.90;;;;;;5041159;28;20080;-82
2023/04/18 07:53:39;;;;;;;30.38;16.90;;;10.70;99.90;;;;;;5038586;28;20203;-81
2023/04/18 07:56:05;;;;;;;28.88;16.38;;;11.30;99.90;;;;;;5033693;28;20052;-81
2023/04/18 07:58:33;;;;;;;34.17;16.90;;;11.60;99.90;;;;;;5045425;28;20414;-82
2023/04/18 08:00:59;;;;;;;30.88;16.02;;;12.10;99.90;;;;;;5045459;28;20043;-81
2023/04/18 08:03:26;;;;;;;24.13;15.65;;;12.30;98.30;;;;;;5048335;28;20043;-81
2023/04/18 08:05:52;;;;;;;24.75;15.18;;;12.20;99.40;;;;;;5046608;28;20029;-81
2023/04/18 08:08:18;;;;;;;26.05;15.02;;;12.90;99.10;;;;;;5064562;28;20028;-82
2023/04/18 08:10:44;;;;;;;25.88;14.35;;;13.70;94.00;;;;;;5066101;28;20057;-81
2023/04/18 08:13:12;;;;;;;23.83;13.88;;;14.30;91.50;;;;;;5049480;28;20052;-83
2023/04/18 08:15:38;;;;;;;26.05;13.80;;;15.80;73.90;;;;;;5044616;28;20021;-82
2023/04/18 08:18:04;;;;;;;21.67;13.20;;;17.00;61.30;;;;;;5045902;28;20043;-82
2023/04/18 08:20:30;;;;;;;18.23;11.65;;;18.90;56.40;;;;;;5046378;28;20045;-80
2023/04/18 08:22:55;;;;;;;20.73;11.73;;;20.70;48.90;;;;;;5045410;28;20126;-81
2023/04/18 08:25:21;;;;;;;20.90;12.05;;;22.00;44.00;;;;;;5046545;28;20025;-80
2023/04/18 08:27:47;;;;;;;17.42;11.65;;;21.70;42.60;;;;;;5044203;28;20446;-81
2023/04/18 08:30:13;;;;;;;17.90;11.75;;;20.50;44.00;;;;;;5044055;28;20025;-80
2023/04/18 08:32:39;;;;;;;16.23;10.32;;;21.60;44.90;;;;;;5042572;28;20111;-82
2023/04/18 08:35:05;;;;;;;19.45;10.30;;;21.40;40.90;;;;;;5046267;28;20169;-83
2023/04/18 08:37:31;;;;;;;19.85;10.10;;;19.70;42.60;;;;;;5062389;28;20040;-80
2023/04/18 08:39:57;;;;;;;15.55;9.27;;;18.40;48.90;;;;;;5047485;28;20120;-82
2023/04/18 08:42:22;;;;;;;17.08;9.02;;;19.20;49.40;;;;;;5065673;28;20060;-83
2023/04/18 08:44:49;;;;;;;14.30;8.90;;;19.90;43.60;;;;;;5049875;28;20414;-82
2023/04/18 08:47:15;;;;;;;13.90;8.77;;;20.00;43.30;;;;;;5037382;28;20029;-82
2023/04/18 08:49:44;;;;;;;14.48;8.93;;;20.70;43.40;;;;;;5046551;28;20021;-82
2023/04/18 08:52:12;;;;;;;16.33;9.35;;;19.60;42.80;;;;;;5060720;28;20045;-83
2023/04/18 08:54:41;;;;;;;14.23;9.02;;;17.70;47.90;;;;;;5031349;28;20021;-83
2023/04/18 08:57:09;;;;;;;20.13;8.93;;;16.40;51.10;;;;;;5047183;28;20102;-83
2023/04/18 08:59:35;;;;;;;16.98;9.35;;;15.90;55.20;;;;;;5050149;28;20841;-82
2023/04/18 09:02:02;;;;;;;14.48;8.10;;;15.50;69.00;;;;;;5049295;28;20060;-84
2023/04/18 09:04:44;;;;;;;13.77;8.68;;;16.30;56.90;;;;;;5046966;28;20851;-81
2023/04/18 09:07:15;;;;;;;14.43;7.82;;;17.20;52.70;;;;;;5047715;28;20111;-81
2023/04/18 09:09:50;;;;;;;13.75;8.35;;;19.20;49.90;;;;;;5048221;28;20025;-81
2023/04/18 09:12:17;;;;;;;15.50;7.93;;;20.50;42.50;;;;;;5046773;28;20072;-81
2023/04/18 09:14:45;;;;;;;14.48;8.75;;;19.10;42.80;;;;;;5045281;28;20033;-82
2023/04/18 09:17:13;;;;;;;15.60;8.32;;;17.60;46.20;;;;;;5072717;28;20529;-80
2023/04/18 09:19:49;;;;;;;15.52;9.10;;;16.20;52.90;;;;;;5076969;28;20040;-83
2023/04/18 09:22:15;;;;;;;16.38;8.73;;;15.10;60.20;;;;;;5047862;28;20033;-82
2023/04/18 09:24:54;;;;;;;21.83;8.80;;;14.40;65.70;;;;;;5061925;28;20090;-80
2023/04/18 09:27:21;;;;;;;19.55;8.50;;;14.30;70.20;;;;;;5048170;28;20040;-82
2023/04/18 09:29:53;;;;;;;13.23;7.47;;;14.20;72.10;;;;;;5046577;28;20105;-81
2023/04/18 09:32:24;;;;;;;16.70;7.55;;;13.80;80.20;;;;;;5043476;28;20033;-82
2023/04/18 09:34:53;;;;;;;16.63;7.63;;;13.60;80.50;;;;;;5029072;28;20028;-82
2023/04/18 09:37:19;;;;;;;13.65;7.30;;;13.40;82.40;;;;;;5025575;28;20041;-82
2023/04/18 09:39:45;;;;;;;17.00;8.05;;;13.50;80.20;;;;;;5036699;28;20025;-83
2023/04/18 09:42:11;;;;;;;14.23;8.07;;;13.10;83.20;;;;;;5043903;28;20652;-81
2023/04/18 09:44:37;;;;;;;11.38;7.30;;;12.80;86.20;;;;;;5055217;28;20025;-82
2023/04/18 09:47:06;;;;;;;16.70;7.32;;;12.90;90.20;;;;;;5046436;28;20055;-81
2023/04/18 09:49:31;;;;;;;11.38;6.85;;;12.90;90.40;;;;;;5037461;28;20841;-81
2023/04/18 09:52:00;;;;;;;15.88;7.53;;;13.30;87.70;;;;;;5045926;28;20048;-81
2023/04/18 09:54:29;;;;;;;13.60;7.07;;;13.90;78.80;;;;;;5061456;28;20036;-82
2023/04/18 09:56:57;;;;;;;18.15;7.50;;;13.90;76.30;;;;;;5061119;28;20037;-81
2023/04/18 09:59:36;;;;;;;13.63;6.72;;;13.70;81.50;;;;;;5061189;28;20028;-81
2023/04/18 10:02:05;;;;;;;13.80;6.18;;;13.20;87.60;;;;;;5030152;28;20029;-81
2023/04/18 10:04:32;;;;;;;12.60;6.60;;;13.20;92.30;;;;;;5037813;28;20162;-80
2023/04/18 10:06:58;;;;;;;13.02;5.70;;;13.30;89.60;;;;;;5046862;28;20036;-82
2023/04/18 10:09:24;;;;;;;12.25;6.05;;;13.10;82.90;;;;;;5059801;28;20048;-80
2023/04/18 10:11:50;;;;;;;11.57;5.28;;;12.90;90.30;;;;;;4693430;28;9999958;-81
2023/04/18 10:14:16;;;;;;;12.23;5.53;;;13.50;89.80;;;;;;5044981;28;20639;-81
2023/04/18 10:16:44;;;;;;;10.20;4.97;;;13.90;79.30;;;;;;5043982;28;20156;-80
2023/04/18 10:19:23;;;;;;;7.97;5.00;;;14.30;84.70;;;;;;5039646;28;20026;-81
2023/04/18 10:21:57;;;;;;;10.05;5.18;;;13.80;69.90;;;;;;5040715;28;20035;-81
2023/04/18 10:24:45;;;;;;;7.70;4.70;;;13.90;81.30;;;;;;5044779;28;20155;-80
2023/04/18 10:27:11;;;;;;;9.32;4.70;;;14.00;77.60;;;;;;5045201;28;20043;-81
2023/04/18 10:29:50;;;;;;;9.80;4.53;;;14.20;70.40;;;;;;5046544;28;20471;-80
2023/04/18 10:32:18;;;;;;;13.90;5.07;;;14.10;76.00;;;;;;5045161;28;20029;-81
2023/04/18 10:34:45;;;;;;;8.88;4.88;;;14.10;75.20;;;;;;5042593;28;20120;-81
2023/04/18 10:37:14;;;;;;;10.75;5.82;;;14.10;81.70;;;;;;5024790;28;20057;-81
2023/04/18 10:39:53;;;;;;;11.23;5.28;;;14.00;82.90;;;;;;5051201;28;20033;-83
2023/04/18 10:42:38;;;;;;;10.02;4.88;;;14.20;77.40;;;;;;5044897;28;20127;-82
2023/04/18 10:45:17;;;;;;;12.18;5.47;;;13.90;79.90;;;;;;5043091;28;20117;-81
2023/04/18 10:47:43;;;;;;;13.02;6.22;;;13.60;83.00;;;;;;5043030;28;20548;-82
2023/04/18 10:50:08;;;;;;;10.70;5.57;;;13.20;82.90;;;;;;5039886;28;20076;-83
2023/04/18 10:52:34;;;;;;;16.70;6.10;;;13.10;92.10;;;;;;5042775;28;20094;-83
2023/04/18 10:55:25;;;;;;;12.68;5.60;;;12.80;90.90;;;;;;5049329;28;20440;-82
2023/04/18 10:57:54;;;;;;;11.05;5.78;;;12.60;90.20;;;;;;5029259;28;20034;-84
2023/04/18 11:00:22;;;;;;;15.57;5.68;;;12.70;93.20;;;;;;5031808;28;20784;-82
2023/04/18 11:02:55;;;;;;;15.05;6.03;;;12.60;91.20;;;;;;5047221;28;20025;-85
2023/04/18 11:05:26;;;;;;;16.17;6.38;;;12.30;89.70;;;;;;5063295;28;20061;-81
2023/04/18 11:07:52;;;;;;;;;;;12.00;92.70;;;;;;5063550;28;20029;-83
2023/04/18 11:10:24;;;;;;;10.23;6.22;;;11.70;95.30;;;;;;5047139;28;20395;-83
2023/04/18 11:12:51;;;;;;;12.75;6.05;;;11.50;94.30;;;;;;5046080;28;20033;-83
2023/04/18 11:15:22;;;;;;;11.68;6.45;;;11.60;96.90;;;;;;5048915;28;20032;-85
2023/04/18 11:17:59;;;;;;;12.05;6.15;;;11.80;96.20;;;;;;5064639;28;20053;-83
2023/04/18 11:20:26;;;;;;;11.65;6.47;;;12.40;95.20;;;;;;5062736;28;20029;-85
2023/04/18 11:22:53;;;;;;;15.00;6.22;;;12.70;92.10;;;;;;5062220;28;20036;-84
2023/04/18 11:25:29;;;;;;;16.92;6.65;;;13.10;91.20;;;;;;5062973;28;20032;-84
2023/04/18 11:27:58;;;;;;;11.60;7.00;;;13.00;90.30;;;;;;5059291;28;20048;-88
2023/04/18 11:30:24;;;;;;;12.18;7.53;;;12.70;91.20;;;;;;5042171;28;20041;-85
2023/04/18 11:32:50;;;;;;;11.48;6.63;;;12.60;93.20;;;;;;5045033;28;20040;-84
2023/04/18 11:35:16;;;;;;;13.55;7.00;;;12.80;92.90;;;;;;5050009;28;20037;-84
2023/04/18 11:37:48;;;;;;;13.00;6.90;;;12.90;90.10;;;;;;5051816;28;20076;-83
2023/04/18 11:40:15;;;;;;;13.63;6.75;;;13.10;92.70;;;;;;5065858;28;20041;-84
2023/04/18 11:42:41;;;;;;;11.88;7.03;;;13.10;90.10;;;;;;5048583;28;20035;-84
2023/04/18 11:45:11;;;;;;;13.07;6.15;;;13.10;89.80;;;;;;5031749;28;20034;-84
2023/04/18 11:47:37;;;;;;;13.57;5.97;;;13.00;78.80;;;;;;5045890;28;20117;-84
2023/04/18 11:50:07;;;;;;;11.63;5.75;;;13.20;76.90;;;;;;5034551;28;20286;-84
2023/04/18 11:52:34;;;;;;;13.95;6.22;;;13.70;79.40;;;;;;5048940;28;20044;-83
2023/04/18 11:55:18;;;;;;;9.93;5.80;;;13.70;77.40;;;;;;5049720;28;20025;-84
2023/04/18 11:57:58;;;;;;;12.00;5.93;;;14.00;69.40;;;;;;5066169;28;20491;-84
2023/04/18 12:00:38;;;;;;;11.05;6.45;;;14.10;70.30;;;;;;5046052;28;20033;-84
2023/04/18 12:03:06;;;;;;;10.32;6.15;;;14.60;63.80;;;;;;5038006;28;20029;-85
2023/04/18 12:05:36;;;;;;;10.55;6.50;;;14.90;64.60;;;;;;5052486;28;20657;-83
2023/04/18 12:08:16;;;;;;;13.52;6.70;;;15.50;59.50;;;;;;5044152;28;20029;-84
2023/04/18 12:10:50;;;;;;;10.27;6.32;;;16.40;53.60;;;;;;5053940;28;20404;-83
2023/04/18 12:13:31;;;;;;;11.13;6.45;;;16.10;52.80;;;;;;4742958;28;10000489;-86
2023/04/18 12:16:00;;;;;;;11.10;6.25;;;16.40;53.10;;;;;;5047292;28;20275;-82
2023/04/18 12:18:26;;;;;;;14.07;7.07;;;15.30;54.10;;;;;;5048046;28;20038;-83
2023/04/18 12:20:53;;;;;;;12.15;6.70;;;14.90;56.50;;;;;;5052840;28;20048;-83
2023/04/18 12:23:32;;;;;;;11.18;6.32;;;14.30;68.60;;;;;;5055326;28;20036;-84
2023/04/18 12:26:00;;;;;;;11.00;7.05;;;14.50;71.30;;;;;;5047813;28;20037;-82
2023/04/18 12:28:27;;;;;;;12.90;7.20;;;14.20;65.90;;;;;;5046903;28;20032;-84
2023/04/18 12:30:52;;;;;;;12.63;7.28;;;14.00;73.80;;;;;;5044640;28;20563;-87
2023/04/18 12:33:18;;;;;;;9.40;6.60;;;13.90;70.80;;;;;;5048677;28;20063;-84
2023/04/18 12:35:44;;;;;;;13.75;7.45;;;14.00;68.80;;;;;;5044398;28;20033;-85